Manila, Utah
Current Conditions -  °F | °C
As of 3:53 PM on Thursday 23 Oct 2014 (Local Time) from KVEL Reporting Station
Clear Clear  
Wind Chill: 63°   Ceiling: Unl
Heat Index: 63°   Visibility: 10mi
Dew Point: 35°   Wind: 5mph
Humidity: 35%   Direction: 70°ENE
Pressure: 30.15"   Gusts: NA
Location:  40.99°N, 109.72°W
Report Text: KVEL 232153Z AUTO 07004KT 10SM CLR 17/02 A3015 RMK AO2 SLP182 T01720017
Loading
Personal Weather Stations






























Interactive Weather Map
Tropical Storm Tracking
New forecast layout! Learn more

10-Day Weather Forecast

Advertisements
Track Severe Weather on mobile